sensor_id;sensor_type;location;lat;lon;timestamp;P1;durP1;ratioP1;P2;durP2;ratioP2
66127;SDS011;52925;52.436;-1.952;2023-04-03T00:01:18;5.53;;;1.97;;
66127;SDS011;52925;52.436;-1.952;2023-04-03T00:02:38;3.73;;;1.50;;
66127;SDS011;52925;52.436;-1.952;2023-04-03T00:03:59;3.70;;;1.37;;
66127;SDS011;52925;52.436;-1.952;2023-04-03T00:05:21;3.40;;;1.53;;
66127;SDS011;52925;52.436;-1.952;2023-04-03T00:06:41;3.10;;;1.60;;
66127;SDS011;52925;52.436;-1.952;2023-04-03T00:08:02;4.77;;;1.87;;
66127;SDS011;52925;52.436;-1.952;2023-04-03T00:09:23;5.00;;;1.63;;
66127;SDS011;52925;52.436;-1.952;2023-04-03T00:10:44;4.30;;;2.00;;
66127;SDS011;52925;52.436;-1.952;2023-04-03T00:12:04;4.93;;;1.57;;
66127;SDS011;52925;52.436;-1.952;2023-04-03T00:13:25;5.57;;;1.63;;
66127;SDS011;52925;52.436;-1.952;2023-04-03T00:14:46;3.57;;;1.70;;
66127;SDS011;52925;52.436;-1.952;2023-04-03T00:16:07;3.57;;;1.40;;
66127;SDS011;52925;52.436;-1.952;2023-04-03T00:17:29;3.57;;;1.50;;
66127;SDS011;52925;52.436;-1.952;2023-04-03T00:18:50;6.40;;;1.90;;
66127;SDS011;52925;52.436;-1.952;2023-04-03T00:20:10;4.70;;;1.67;;
66127;SDS011;52925;52.436;-1.952;2023-04-03T00:21:33;4.80;;;2.00;;
66127;SDS011;52925;52.436;-1.952;2023-04-03T00:22:52;3.90;;;1.80;;
66127;SDS011;52925;52.436;-1.952;2023-04-03T00:24:13;4.27;;;1.80;;
66127;SDS011;52925;52.436;-1.952;2023-04-03T00:25:34;5.00;;;1.57;;
66127;SDS011;52925;52.436;-1.952;2023-04-03T00:26:55;3.87;;;2.10;;
66127;SDS011;52925;52.436;-1.952;2023-04-03T00:28:15;6.97;;;2.00;;
66127;SDS011;52925;52.436;-1.952;2023-04-03T00:29:36;3.47;;;1.40;;
66127;SDS011;52925;52.436;-1.952;2023-04-03T00:30:55;5.73;;;1.53;;
66127;SDS011;52925;52.436;-1.952;2023-04-03T00:32:16;5.17;;;1.97;;
66127;SDS011;52925;52.436;-1.952;2023-04-03T05:31:13;5.80;;;2.30;;
66127;SDS011;52925;52.436;-1.952;2023-04-03T05:32:35;5.47;;;2.60;;
66127;SDS011;52925;52.436;-1.952;2023-04-03T05:34:07;6.77;;;2.73;;
66127;SDS011;52925;52.436;-1.952;2023-04-03T05:35:29;6.03;;;2.70;;
66127;SDS011;52925;52.436;-1.952;2023-04-03T05:36:52;5.13;;;2.87;;
66127;SDS011;52925;52.436;-1.952;2023-04-03T05:38:14;9.40;;;2.87;;
66127;SDS011;52925;52.436;-1.952;2023-04-03T05:39:34;6.77;;;3.07;;
66127;SDS011;52925;52.436;-1.952;2023-04-03T05:40:56;6.50;;;2.67;;
66127;SDS011;52925;52.436;-1.952;2023-04-03T05:42:17;5.10;;;2.30;;
66127;SDS011;52925;52.436;-1.952;2023-04-03T05:43:38;6.13;;;2.60;;
66127;SDS011;52925;52.436;-1.952;2023-04-03T05:45:01;8.53;;;2.33;;
66127;SDS011;52925;52.436;-1.952;2023-04-03T05:46:24;5.43;;;2.20;;
66127;SDS011;52925;52.436;-1.952;2023-04-03T05:47:49;4.55;;;2.40;;
66127;SDS011;52925;52.436;-1.952;2023-04-03T05:49:09;6.27;;;2.37;;
66127;SDS011;52925;52.436;-1.952;2023-04-03T05:50:31;3.10;;;2.40;;
66127;SDS011;52925;52.436;-1.952;2023-04-03T05:51:52;7.03;;;2.87;;
66127;SDS011;52925;52.436;-1.952;2023-04-03T05:53:21;5.87;;;2.47;;
66127;SDS011;52925;52.436;-1.952;2023-04-03T05:54:45;6.60;;;2.73;;
66127;SDS011;52925;52.436;-1.952;2023-04-03T05:56:11;2.90;;;2.10;;
66127;SDS011;52925;52.436;-1.952;2023-04-03T05:57:33;6.67;;;2.47;;
66127;SDS011;52925;52.436;-1.952;2023-04-03T05:58:54;5.18;;;2.53;;
66127;SDS011;52925;52.436;-1.952;2023-04-03T06:00:16;6.90;;;2.30;;
66127;SDS011;52925;52.436;-1.952;2023-04-03T06:01:48;4.27;;;2.27;;
66127;SDS011;52925;52.436;-1.952;2023-04-03T06:03:09;4.83;;;2.70;;
66127;SDS011;52925;52.436;-1.952;2023-04-03T06:04:30;4.37;;;2.30;;
66127;SDS011;52925;52.436;-1.952;2023-04-03T06:05:51;7.50;;;2.40;;
66127;SDS011;52925;52.436;-1.952;2023-04-03T06:07:13;5.17;;;2.07;;
66127;SDS011;52925;52.436;-1.952;2023-04-03T06:08:36;7.47;;;2.53;;
66127;SDS011;52925;52.436;-1.952;2023-04-03T06:09:57;6.27;;;2.53;;
66127;SDS011;52925;52.436;-1.952;2023-04-03T06:11:18;3.70;;;2.07;;
66127;SDS011;52925;52.436;-1.952;2023-04-03T06:12:41;7.93;;;2.53;;
66127;SDS011;52925;52.436;-1.952;2023-04-03T06:14:02;6.13;;;2.33;;
66127;SDS011;52925;52.436;-1.952;2023-04-03T06:15:23;8.05;;;2.60;;
66127;SDS011;52925;52.436;-1.952;2023-04-03T06:16:44;6.70;;;2.50;;
66127;SDS011;52925;52.436;-1.952;2023-04-03T06:18:07;9.23;;;2.77;;
66127;SDS011;52925;52.436;-1.952;2023-04-03T06:19:28;4.33;;;2.23;;
66127;SDS011;52925;52.436;-1.952;2023-04-03T06:20:50;4.60;;;2.57;;
66127;SDS011;52925;52.436;-1.952;2023-04-03T06:22:12;4.43;;;2.20;;
66127;SDS011;52925;52.436;-1.952;2023-04-03T06:23:33;3.80;;;2.20;;
66127;SDS011;52925;52.436;-1.952;2023-04-03T06:24:54;8.03;;;2.63;;
66127;SDS011;52925;52.436;-1.952;2023-04-03T06:26:15;6.53;;;2.43;;
66127;SDS011;52925;52.436;-1.952;2023-04-03T06:27:36;4.87;;;2.33;;
66127;SDS011;52925;52.436;-1.952;2023-04-03T06:28:57;5.32;;;2.33;;
66127;SDS011;52925;52.436;-1.952;2023-04-03T06:30:18;3.77;;;2.30;;
66127;SDS011;52925;52.436;-1.952;2023-04-03T06:31:39;4.33;;;2.23;;
66127;SDS011;52925;52.436;-1.952;2023-04-03T06:33:00;5.32;;;2.63;;
66127;SDS011;52925;52.436;-1.952;2023-04-03T06:34:23;4.20;;;2.80;;
66127;SDS011;52925;52.436;-1.952;2023-04-03T06:35:44;5.40;;;2.70;;
66127;SDS011;52925;52.436;-1.952;2023-04-03T06:37:05;7.93;;;3.00;;
66127;SDS011;52925;52.436;-1.952;2023-04-03T06:38:26;5.43;;;3.13;;
66127;SDS011;52925;52.436;-1.952;2023-04-03T06:39:47;6.43;;;2.73;;
66127;SDS011;52925;52.436;-1.952;2023-04-03T06:41:09;6.20;;;3.00;;
66127;SDS011;52925;52.436;-1.952;2023-04-03T06:42:30;6.90;;;3.13;;
66127;SDS011;52925;52.436;-1.952;2023-04-03T06:44:01;6.50;;;3.27;;
66127;SDS011;52925;52.436;-1.952;2023-04-03T06:45:22;8.33;;;3.57;;
66127;SDS011;52925;52.436;-1.952;2023-04-03T06:46:44;6.77;;;3.30;;
66127;SDS011;52925;52.436;-1.952;2023-04-03T06:48:05;5.33;;;3.53;;
66127;SDS011;52925;52.436;-1.952;2023-04-03T06:49:28;6.67;;;3.60;;
66127;SDS011;52925;52.436;-1.952;2023-04-03T17:46:11;7.80;;;4.63;;
66127;SDS011;52925;52.436;-1.952;2023-04-03T17:47:34;10.70;;;4.90;;
66127;SDS011;52925;52.436;-1.952;2023-04-03T17:48:55;8.40;;;4.27;;
66127;SDS011;52925;52.436;-1.952;2023-04-03T17:50:18;6.97;;;4.30;;
66127;SDS011;52925;52.436;-1.952;2023-04-03T17:51:39;7.80;;;4.13;;
66127;SDS011;52925;52.436;-1.952;2023-04-03T17:53:01;7.03;;;4.40;;
66127;SDS011;52925;52.436;-1.952;2023-04-03T17:54:21;8.87;;;4.13;;
66127;SDS011;52925;52.436;-1.952;2023-04-03T17:55:42;6.23;;;4.17;;
66127;SDS011;52925;52.436;-1.952;2023-04-03T17:57:03;7.70;;;4.10;;
66127;SDS011;52925;52.436;-1.952;2023-04-03T17:58:24;9.57;;;4.30;;
66127;SDS011;52925;52.436;-1.952;2023-04-03T17:59:46;6.83;;;4.20;;
66127;SDS011;52925;52.436;-1.952;2023-04-03T18:01:08;6.80;;;4.07;;
66127;SDS011;52925;52.436;-1.952;2023-04-03T18:02:32;7.23;;;3.70;;
66127;SDS011;52925;52.436;-1.952;2023-04-03T18:03:53;6.93;;;3.67;;
66127;SDS011;52925;52.436;-1.952;2023-04-03T18:05:15;11.33;;;4.20;;
66127;SDS011;52925;52.436;-1.952;2023-04-03T18:06:37;6.40;;;3.60;;
66127;SDS011;52925;52.436;-1.952;2023-04-03T18:08:01;6.70;;;3.97;;
66127;SDS011;52925;52.436;-1.952;2023-04-03T18:09:24;7.23;;;3.40;;
66127;SDS011;52925;52.436;-1.952;2023-04-03T18:10:47;6.10;;;3.30;;
66127;SDS011;52925;52.436;-1.952;2023-04-03T18:12:09;5.43;;;3.30;;
66127;SDS011;52925;52.436;-1.952;2023-04-03T18:13:30;4.37;;;3.20;;
66127;SDS011;52925;52.436;-1.952;2023-04-03T18:14:51;5.20;;;3.20;;
66127;SDS011;52925;52.436;-1.952;2023-04-03T18:16:13;5.40;;;3.30;;
66127;SDS011;52925;52.436;-1.952;2023-04-03T18:17:34;4.87;;;3.17;;
66127;SDS011;52925;52.436;-1.952;2023-04-03T18:18:55;6.10;;;3.50;;
66127;SDS011;52925;52.436;-1.952;2023-04-03T18:20:16;6.97;;;3.07;;
66127;SDS011;52925;52.436;-1.952;2023-04-03T18:21:37;5.20;;;3.07;;
66127;SDS011;52925;52.436;-1.952;2023-04-03T18:23:00;5.20;;;3.30;;
66127;SDS011;52925;52.436;-1.952;2023-04-03T18:24:22;5.03;;;3.17;;
66127;SDS011;52925;52.436;-1.952;2023-04-03T18:25:44;5.27;;;2.93;;
66127;SDS011;52925;52.436;-1.952;2023-04-03T18:27:08;4.53;;;2.90;;
66127;SDS011;52925;52.436;-1.952;2023-04-03T18:28:30;6.70;;;2.80;;
66127;SDS011;52925;52.436;-1.952;2023-04-03T18:29:51;6.40;;;3.00;;
66127;SDS011;52925;52.436;-1.952;2023-04-03T18:31:16;7.97;;;3.17;;
66127;SDS011;52925;52.436;-1.952;2023-04-03T18:32:39;4.57;;;2.87;;
66127;SDS011;52925;52.436;-1.952;2023-04-03T18:34:00;5.40;;;2.83;;
66127;SDS011;52925;52.436;-1.952;2023-04-03T18:35:21;5.57;;;2.97;;
66127;SDS011;52925;52.436;-1.952;2023-04-03T18:36:42;8.07;;;3.00;;
66127;SDS011;52925;52.436;-1.952;2023-04-03T18:38:04;7.63;;;2.50;;
66127;SDS011;52925;52.436;-1.952;2023-04-03T18:39:25;6.30;;;2.80;;
66127;SDS011;52925;52.436;-1.952;2023-04-03T18:40:46;5.70;;;2.70;;
66127;SDS011;52925;52.436;-1.952;2023-04-03T18:42:08;8.40;;;2.83;;
66127;SDS011;52925;52.436;-1.952;2023-04-03T18:43:32;8.53;;;2.30;;
66127;SDS011;52925;52.436;-1.952;2023-04-03T18:44:54;7.50;;;3.47;;
66127;SDS011;52925;52.436;-1.952;2023-04-03T18:46:20;5.90;;;2.60;;
66127;SDS011;52925;52.436;-1.952;2023-04-03T18:47:40;7.97;;;2.80;;
66127;SDS011;52925;52.436;-1.952;2023-04-03T18:49:01;8.73;;;3.03;;
66127;SDS011;52925;52.436;-1.952;2023-04-03T18:50:23;5.43;;;3.00;;
66127;SDS011;52925;52.436;-1.952;2023-04-03T18:51:44;5.67;;;2.37;;
66127;SDS011;52925;52.436;-1.952;2023-04-03T18:53:05;6.27;;;2.67;;
66127;SDS011;52925;52.436;-1.952;2023-04-03T18:54:26;7.23;;;2.57;;
66127;SDS011;52925;52.436;-1.952;2023-04-03T18:55:47;5.17;;;2.87;;
66127;SDS011;52925;52.436;-1.952;2023-04-03T18:57:08;9.27;;;2.70;;
66127;SDS011;52925;52.436;-1.952;2023-04-03T18:58:29;6.13;;;2.80;;
66127;SDS011;52925;52.436;-1.952;2023-04-03T18:59:50;5.87;;;2.77;;
66127;SDS011;52925;52.436;-1.952;2023-04-03T19:01:12;7.33;;;2.87;;
66127;SDS011;52925;52.436;-1.952;2023-04-03T19:02:34;7.40;;;2.63;;
66127;SDS011;52925;52.436;-1.952;2023-04-03T19:03:55;7.70;;;2.90;;
66127;SDS011;52925;52.436;-1.952;2023-04-03T19:05:16;7.30;;;2.80;;
66127;SDS011;52925;52.436;-1.952;2023-04-03T19:06:38;4.13;;;2.73;;
66127;SDS011;52925;52.436;-1.952;2023-04-03T19:08:00;5.83;;;2.67;;
66127;SDS011;52925;52.436;-1.952;2023-04-03T19:09:21;4.73;;;2.80;;
66127;SDS011;52925;52.436;-1.952;2023-04-03T19:10:44;5.13;;;2.67;;
66127;SDS011;52925;52.436;-1.952;2023-04-03T19:12:05;6.27;;;2.60;;
66127;SDS011;52925;52.436;-1.952;2023-04-03T19:13:27;6.20;;;2.70;;
66127;SDS011;52925;52.436;-1.952;2023-04-03T19:14:48;5.60;;;2.30;;
66127;SDS011;52925;52.436;-1.952;2023-04-03T19:16:09;7.47;;;2.30;;
66127;SDS011;52925;52.436;-1.952;2023-04-03T19:17:30;5.07;;;2.77;;
66127;SDS011;52925;52.436;-1.952;2023-04-03T19:18:52;5.23;;;2.40;;
66127;SDS011;52925;52.436;-1.952;2023-04-03T19:20:13;4.00;;;2.40;;
66127;SDS011;52925;52.436;-1.952;2023-04-03T19:21:34;5.13;;;2.60;;
66127;SDS011;52925;52.436;-1.952;2023-04-03T19:22:58;5.30;;;2.60;;
66127;SDS011;52925;52.436;-1.952;2023-04-03T19:24:19;5.50;;;2.57;;
66127;SDS011;52925;52.436;-1.952;2023-04-03T19:25:40;6.37;;;2.77;;
66127;SDS011;52925;52.436;-1.952;2023-04-03T19:27:01;6.57;;;2.47;;
66127;SDS011;52925;52.436;-1.952;2023-04-03T19:28:23;7.10;;;2.50;;
66127;SDS011;52925;52.436;-1.952;2023-04-03T19:29:44;4.40;;;2.60;;
66127;SDS011;52925;52.436;-1.952;2023-04-03T19:31:09;4.73;;;2.43;;
66127;SDS011;52925;52.436;-1.952;2023-04-03T19:32:31;5.20;;;2.40;;
66127;SDS011;52925;52.436;-1.952;2023-04-03T19:33:53;6.30;;;2.70;;
66127;SDS011;52925;52.436;-1.952;2023-04-03T19:35:14;6.17;;;2.80;;
66127;SDS011;52925;52.436;-1.952;2023-04-03T19:36:35;6.03;;;2.83;;
66127;SDS011;52925;52.436;-1.952;2023-04-03T19:37:56;5.47;;;2.90;;
66127;SDS011;52925;52.436;-1.952;2023-04-03T19:39:17;4.47;;;2.13;;
66127;SDS011;52925;52.436;-1.952;2023-04-03T19:40:38;4.87;;;2.50;;
66127;SDS011;52925;52.436;-1.952;2023-04-03T19:44:23;5.00;;;2.40;;
66127;SDS011;52925;52.436;-1.952;2023-04-03T19:45:44;6.83;;;2.63;;
66127;SDS011;52925;52.436;-1.952;2023-04-03T19:47:05;5.50;;;2.37;;
66127;SDS011;52925;52.436;-1.952;2023-04-03T19:48:26;6.73;;;2.90;;
66127;SDS011;52925;52.436;-1.952;2023-04-03T19:49:50;4.60;;;2.30;;
66127;SDS011;52925;52.436;-1.952;2023-04-03T19:51:11;5.70;;;2.70;;
66127;SDS011;52925;52.436;-1.952;2023-04-03T19:52:32;6.57;;;2.70;;
66127;SDS011;52925;52.436;-1.952;2023-04-03T19:53:53;6.20;;;2.80;;
66127;SDS011;52925;52.436;-1.952;2023-04-03T19:55:13;6.13;;;2.87;;
66127;SDS011;52925;52.436;-1.952;2023-04-03T19:56:34;9.77;;;2.77;;
66127;SDS011;52925;52.436;-1.952;2023-04-03T19:57:56;5.30;;;2.70;;
66127;SDS011;52925;52.436;-1.952;2023-04-03T19:59:18;5.70;;;2.57;;
66127;SDS011;52925;52.436;-1.952;2023-04-03T20:00:39;5.57;;;2.80;;
66127;SDS011;52925;52.436;-1.952;2023-04-03T20:02:00;5.10;;;2.77;;
66127;SDS011;52925;52.436;-1.952;2023-04-03T20:03:21;5.97;;;2.80;;
66127;SDS011;52925;52.436;-1.952;2023-04-03T20:04:43;6.53;;;2.60;;
66127;SDS011;52925;52.436;-1.952;2023-04-03T20:06:05;8.87;;;2.67;;
66127;SDS011;52925;52.436;-1.952;2023-04-03T20:07:26;3.50;;;2.30;;
66127;SDS011;52925;52.436;-1.952;2023-04-03T20:08:46;5.60;;;2.43;;
66127;SDS011;52925;52.436;-1.952;2023-04-03T20:10:08;5.40;;;2.73;;
66127;SDS011;52925;52.436;-1.952;2023-04-03T20:11:30;5.80;;;2.70;;
66127;SDS011;52925;52.436;-1.952;2023-04-03T20:12:53;4.50;;;2.40;;
66127;SDS011;52925;52.436;-1.952;2023-04-03T20:14:14;4.93;;;2.87;;
66127;SDS011;52925;52.436;-1.952;2023-04-03T20:15:36;4.40;;;2.57;;
66127;SDS011;52925;52.436;-1.952;2023-04-03T20:16:59;5.77;;;3.07;;
66127;SDS011;52925;52.436;-1.952;2023-04-03T20:18:20;5.63;;;2.87;;
66127;SDS011;52925;52.436;-1.952;2023-04-03T20:19:40;6.17;;;2.93;;
66127;SDS011;52925;52.436;-1.952;2023-04-03T20:21:02;4.50;;;3.00;;
66127;SDS011;52925;52.436;-1.952;2023-04-03T20:22:26;4.80;;;2.70;;
66127;SDS011;52925;52.436;-1.952;2023-04-03T20:23:46;4.83;;;2.60;;
66127;SDS011;52925;52.436;-1.952;2023-04-03T20:25:10;3.27;;;2.70;;
66127;SDS011;52925;52.436;-1.952;2023-04-03T20:26:33;6.03;;;2.90;;
66127;SDS011;52925;52.436;-1.952;2023-04-03T20:27:56;4.53;;;2.33;;
66127;SDS011;52925;52.436;-1.952;2023-04-03T20:29:17;5.23;;;2.90;;
66127;SDS011;52925;52.436;-1.952;2023-04-03T20:30:38;3.87;;;3.03;;
66127;SDS011;52925;52.436;-1.952;2023-04-03T20:31:59;6.50;;;2.87;;
66127;SDS011;52925;52.436;-1.952;2023-04-03T20:33:20;4.80;;;2.60;;
66127;SDS011;52925;52.436;-1.952;2023-04-03T20:34:40;5.30;;;3.03;;
66127;SDS011;52925;52.436;-1.952;2023-04-03T20:36:02;4.60;;;2.80;;
66127;SDS011;52925;52.436;-1.952;2023-04-03T20:37:25;4.33;;;3.00;;
66127;SDS011;52925;52.436;-1.952;2023-04-03T20:38:46;5.87;;;2.93;;
66127;SDS011;52925;52.436;-1.952;2023-04-03T20:40:10;6.30;;;2.70;;
66127;SDS011;52925;52.436;-1.952;2023-04-03T20:41:31;6.50;;;2.80;;
66127;SDS011;52925;52.436;-1.952;2023-04-03T20:42:53;4.83;;;3.00;;
66127;SDS011;52925;52.436;-1.952;2023-04-03T20:44:15;3.77;;;2.60;;
66127;SDS011;52925;52.436;-1.952;2023-04-03T20:45:37;4.50;;;2.80;;
66127;SDS011;52925;52.436;-1.952;2023-04-03T20:46:58;5.13;;;2.80;;
66127;SDS011;52925;52.436;-1.952;2023-04-03T20:48:18;5.30;;;2.77;;
66127;SDS011;52925;52.436;-1.952;2023-04-03T20:49:39;6.60;;;2.70;;
66127;SDS011;52925;52.436;-1.952;2023-04-03T20:51:08;5.57;;;3.23;;
66127;SDS011;52925;52.436;-1.952;2023-04-03T20:52:30;4.63;;;2.93;;
66127;SDS011;52925;52.436;-1.952;2023-04-03T20:53:51;5.67;;;3.00;;
66127;SDS011;52925;52.436;-1.952;2023-04-03T20:55:12;3.77;;;3.00;;
66127;SDS011;52925;52.436;-1.952;2023-04-03T20:56:33;5.90;;;3.27;;
66127;SDS011;52925;52.436;-1.952;2023-04-03T20:57:54;4.53;;;2.90;;
66127;SDS011;52925;52.436;-1.952;2023-04-03T20:59:19;3.70;;;3.07;;
66127;SDS011;52925;52.436;-1.952;2023-04-03T21:00:40;3.70;;;2.73;;
66127;SDS011;52925;52.436;-1.952;2023-04-03T21:02:00;7.73;;;3.73;;
66127;SDS011;52925;52.436;-1.952;2023-04-03T21:03:22;6.13;;;3.37;;
66127;SDS011;52925;52.436;-1.952;2023-04-03T21:04:44;4.40;;;3.00;;
66127;SDS011;52925;52.436;-1.952;2023-04-03T21:20:20;6.27;;;3.30;;
66127;SDS011;52925;52.436;-1.952;2023-04-03T21:21:40;7.20;;;3.60;;
66127;SDS011;52925;52.436;-1.952;2023-04-03T21:23:04;4.80;;;3.47;;
66127;SDS011;52925;52.436;-1.952;2023-04-03T21:24:25;4.70;;;3.23;;
66127;SDS011;52925;52.436;-1.952;2023-04-03T21:25:47;5.23;;;3.47;;
66127;SDS011;52925;52.436;-1.952;2023-04-03T21:27:07;4.43;;;3.10;;
66127;SDS011;52925;52.436;-1.952;2023-04-03T21:28:28;5.40;;;3.40;;
66127;SDS011;52925;52.436;-1.952;2023-04-03T21:29:48;5.37;;;3.30;;
66127;SDS011;52925;52.436;-1.952;2023-04-03T21:31:10;5.40;;;3.50;;
66127;SDS011;52925;52.436;-1.952;2023-04-03T21:32:30;6.27;;;3.27;;
66127;SDS011;52925;52.436;-1.952;2023-04-03T21:33:50;5.20;;;3.80;;
66127;SDS011;52925;52.436;-1.952;2023-04-03T21:35:11;4.70;;;3.40;;
66127;SDS011;52925;52.436;-1.952;2023-04-03T21:36:38;5.93;;;3.70;;
66127;SDS011;52925;52.436;-1.952;2023-04-03T21:37:59;5.80;;;3.27;;
66127;SDS011;52925;52.436;-1.952;2023-04-03T21:39:20;5.53;;;3.20;;
66127;SDS011;52925;52.436;-1.952;2023-04-03T21:40:41;5.83;;;3.50;;
66127;SDS011;52925;52.436;-1.952;2023-04-03T21:42:04;5.80;;;3.77;;
66127;SDS011;52925;52.436;-1.952;2023-04-03T21:43:25;5.47;;;3.70;;
66127;SDS011;52925;52.436;-1.952;2023-04-03T21:44:46;4.67;;;3.20;;
66127;SDS011;52925;52.436;-1.952;2023-04-03T21:46:06;4.63;;;3.60;;
66127;SDS011;52925;52.436;-1.952;2023-04-03T21:47:26;4.90;;;3.43;;
66127;SDS011;52925;52.436;-1.952;2023-04-03T21:48:47;5.80;;;3.43;;
66127;SDS011;52925;52.436;-1.952;2023-04-03T21:50:09;4.47;;;3.40;;
66127;SDS011;52925;52.436;-1.952;2023-04-03T21:51:31;4.60;;;3.20;;
66127;SDS011;52925;52.436;-1.952;2023-04-03T21:52:52;3.30;;;3.00;;
66127;SDS011;52925;52.436;-1.952;2023-04-03T21:54:14;5.93;;;3.40;;
66127;SDS011;52925;52.436;-1.952;2023-04-03T21:55:34;5.57;;;3.77;;
66127;SDS011;52925;52.436;-1.952;2023-04-03T21:56:55;4.20;;;3.23;;
66127;SDS011;52925;52.436;-1.952;2023-04-03T21:58:16;6.87;;;3.00;;
66127;SDS011;52925;52.436;-1.952;2023-04-03T21:59:35;3.97;;;3.40;;
66127;SDS011;52925;52.436;-1.952;2023-04-03T22:00:57;6.20;;;3.60;;
66127;SDS011;52925;52.436;-1.952;2023-04-03T22:02:25;4.13;;;3.30;;
66127;SDS011;52925;52.436;-1.952;2023-04-03T22:03:47;3.90;;;3.17;;
66127;SDS011;52925;52.436;-1.952;2023-04-03T22:05:08;4.50;;;3.10;;
66127;SDS011;52925;52.436;-1.952;2023-04-03T22:06:28;3.87;;;3.30;;
66127;SDS011;52925;52.436;-1.952;2023-04-03T22:07:51;4.40;;;2.97;;
66127;SDS011;52925;52.436;-1.952;2023-04-03T22:09:11;4.87;;;3.67;;
66127;SDS011;52925;52.436;-1.952;2023-04-03T22:10:32;5.33;;;3.40;;
66127;SDS011;52925;52.436;-1.952;2023-04-03T22:11:52;4.97;;;3.30;;
66127;SDS011;52925;52.436;-1.952;2023-04-03T22:13:13;4.23;;;2.80;;
66127;SDS011;52925;52.436;-1.952;2023-04-03T22:14:33;5.57;;;3.17;;
66127;SDS011;52925;52.436;-1.952;2023-04-03T22:15:54;4.30;;;3.43;;
66127;SDS011;52925;52.436;-1.952;2023-04-03T22:17:14;4.80;;;3.30;;
66127;SDS011;52925;52.436;-1.952;2023-04-03T22:18:35;5.03;;;3.63;;
66127;SDS011;52925;52.436;-1.952;2023-04-03T22:19:56;6.40;;;2.90;;
66127;SDS011;52925;52.436;-1.952;2023-04-03T22:21:16;4.57;;;2.93;;
66127;SDS011;52925;52.436;-1.952;2023-04-03T22:22:37;4.63;;;3.20;;
66127;SDS011;52925;52.436;-1.952;2023-04-03T22:24:00;4.97;;;3.10;;
66127;SDS011;52925;52.436;-1.952;2023-04-03T22:25:21;3.50;;;3.17;;
66127;SDS011;52925;52.436;-1.952;2023-04-03T22:26:41;3.97;;;3.10;;
66127;SDS011;52925;52.436;-1.952;2023-04-03T22:28:02;5.30;;;2.93;;
66127;SDS011;52925;52.436;-1.952;2023-04-03T22:29:22;4.97;;;3.07;;
66127;SDS011;52925;52.436;-1.952;2023-04-03T22:30:43;5.43;;;3.00;;
66127;SDS011;52925;52.436;-1.952;2023-04-03T22:32:03;4.33;;;3.00;;
66127;SDS011;52925;52.436;-1.952;2023-04-03T22:33:24;3.73;;;2.97;;
66127;SDS011;52925;52.436;-1.952;2023-04-03T22:34:45;5.30;;;3.27;;
66127;SDS011;52925;52.436;-1.952;2023-04-03T22:36:07;6.87;;;3.17;;
66127;SDS011;52925;52.436;-1.952;2023-04-03T22:37:28;5.73;;;3.00;;
66127;SDS011;52925;52.436;-1.952;2023-04-03T22:38:48;4.07;;;3.00;;
66127;SDS011;52925;52.436;-1.952;2023-04-03T22:40:11;4.17;;;2.97;;
66127;SDS011;52925;52.436;-1.952;2023-04-03T22:41:31;6.03;;;3.27;;
66127;SDS011;52925;52.436;-1.952;2023-04-03T22:42:52;5.30;;;3.60;;
66127;SDS011;52925;52.436;-1.952;2023-04-03T22:44:13;5.47;;;3.33;;
66127;SDS011;52925;52.436;-1.952;2023-04-03T22:45:35;3.93;;;3.20;;
66127;SDS011;52925;52.436;-1.952;2023-04-03T22:47:04;3.40;;;3.00;;
66127;SDS011;52925;52.436;-1.952;2023-04-03T22:48:25;4.80;;;3.10;;
66127;SDS011;52925;52.436;-1.952;2023-04-03T22:49:46;4.43;;;3.20;;
66127;SDS011;52925;52.436;-1.952;2023-04-03T22:51:07;4.10;;;2.90;;
66127;SDS011;52925;52.436;-1.952;2023-04-03T22:52:27;4.53;;;2.60;;
66127;SDS011;52925;52.436;-1.952;2023-04-03T22:53:47;3.90;;;3.20;;
66127;SDS011;52925;52.436;-1.952;2023-04-03T22:55:08;5.17;;;2.80;;
66127;SDS011;52925;52.436;-1.952;2023-04-03T22:56:32;5.60;;;3.10;;
66127;SDS011;52925;52.436;-1.952;2023-04-03T22:57:53;6.53;;;3.40;;
66127;SDS011;52925;52.436;-1.952;2023-04-03T22:59:14;6.77;;;3.37;;
66127;SDS011;52925;52.436;-1.952;2023-04-03T23:00:35;3.63;;;2.83;;
66127;SDS011;52925;52.436;-1.952;2023-04-03T23:01:55;4.93;;;3.00;;
66127;SDS011;52925;52.436;-1.952;2023-04-03T23:03:16;3.83;;;2.97;;
66127;SDS011;52925;52.436;-1.952;2023-04-03T23:04:36;5.13;;;3.00;;
66127;SDS011;52925;52.436;-1.952;2023-04-03T23:05:58;7.00;;;3.00;;
66127;SDS011;52925;52.436;-1.952;2023-04-03T23:07:19;3.90;;;2.97;;
66127;SDS011;52925;52.436;-1.952;2023-04-03T23:08:40;5.87;;;3.10;;
66127;SDS011;52925;52.436;-1.952;2023-04-03T23:10:01;5.70;;;2.90;;
66127;SDS011;52925;52.436;-1.952;2023-04-03T23:11:21;5.00;;;3.00;;
66127;SDS011;52925;52.436;-1.952;2023-04-03T23:12:43;4.77;;;3.00;;
66127;SDS011;52925;52.436;-1.952;2023-04-03T23:14:03;3.63;;;2.83;;
66127;SDS011;52925;52.436;-1.952;2023-04-03T23:15:24;4.70;;;2.80;;
66127;SDS011;52925;52.436;-1.952;2023-04-03T23:16:44;4.13;;;2.70;;
66127;SDS011;52925;52.436;-1.952;2023-04-03T23:18:04;4.10;;;2.63;;
66127;SDS011;52925;52.436;-1.952;2023-04-03T23:19:25;3.80;;;2.60;;
66127;SDS011;52925;52.436;-1.952;2023-04-03T23:20:46;5.00;;;2.87;;
66127;SDS011;52925;52.436;-1.952;2023-04-03T23:22:09;4.90;;;2.87;;
66127;SDS011;52925;52.436;-1.952;2023-04-03T23:23:32;4.03;;;2.93;;
66127;SDS011;52925;52.436;-1.952;2023-04-03T23:24:53;8.40;;;3.30;;
66127;SDS011;52925;52.436;-1.952;2023-04-03T23:26:13;3.43;;;2.50;;
66127;SDS011;52925;52.436;-1.952;2023-04-03T23:27:34;4.73;;;2.90;;
66127;SDS011;52925;52.436;-1.952;2023-04-03T23:28:56;4.90;;;3.00;;
66127;SDS011;52925;52.436;-1.952;2023-04-03T23:30:16;4.77;;;2.97;;
66127;SDS011;52925;52.436;-1.952;2023-04-03T23:31:36;3.57;;;2.90;;
66127;SDS011;52925;52.436;-1.952;2023-04-03T23:32:57;3.60;;;2.80;;
66127;SDS011;52925;52.436;-1.952;2023-04-03T23:34:17;3.67;;;2.63;;
66127;SDS011;52925;52.436;-1.952;2023-04-03T23:35:40;4.57;;;2.87;;
66127;SDS011;52925;52.436;-1.952;2023-04-03T23:37:01;5.10;;;2.67;;
66127;SDS011;52925;52.436;-1.952;2023-04-03T23:38:22;4.60;;;2.60;;
66127;SDS011;52925;52.436;-1.952;2023-04-03T23:39:42;4.43;;;2.83;;
66127;SDS011;52925;52.436;-1.952;2023-04-03T23:41:02;5.57;;;2.60;;
66127;SDS011;52925;52.436;-1.952;2023-04-03T23:42:22;5.73;;;2.63;;
66127;SDS011;52925;52.436;-1.952;2023-04-03T23:43:43;6.20;;;2.87;;
66127;SDS011;52925;52.436;-1.952;2023-04-03T23:45:07;4.07;;;2.80;;
66127;SDS011;52925;52.436;-1.952;2023-04-03T23:46:28;3.40;;;2.80;;
66127;SDS011;52925;52.436;-1.952;2023-04-03T23:47:49;3.70;;;2.90;;
66127;SDS011;52925;52.436;-1.952;2023-04-03T23:49:10;4.07;;;2.80;;
66127;SDS011;52925;52.436;-1.952;2023-04-03T23:50:31;3.77;;;2.40;;
66127;SDS011;52925;52.436;-1.952;2023-04-03T23:51:51;2.93;;;2.33;;
66127;SDS011;52925;52.436;-1.952;2023-04-03T23:53:12;4.23;;;2.63;;
66127;SDS011;52925;52.436;-1.952;2023-04-03T23:54:33;4.47;;;2.70;;
66127;SDS011;52925;52.436;-1.952;2023-04-03T23:55:53;4.00;;;2.47;;
66127;SDS011;52925;52.436;-1.952;2023-04-03T23:57:14;4.83;;;2.83;;
66127;SDS011;52925;52.436;-1.952;2023-04-03T23:58:35;3.43;;;2.60;;
66127;SDS011;52925;52.436;-1.952;2023-04-03T23:59:54;5.07;;;2.60;;
